Time;durP1;ratioP1;P1;durP2;ratioP2;P2;SDS_P1;SDS_P2;PMS_P1;PMS_P2;Temp;Humidity;BMP_temperature;BMP_pressure;BME280_temperature;BME280_humidity;BME280_pressure;Samples;Min_cycle;Max_cycle;Signal;HPM_P1;HPM_P2
2022/04/17 00:00:12;;;;;;;6.07;2.90;;;;;;;4.41;100.00;103187.75;4901335;29;20028;-80
2022/04/17 00:02:38;;;;;;;10.05;3.13;;;;;;;4.41;100.00;103182.41;4903053;29;20033;-80
2022/04/17 00:05:05;;;;;;;9.82;2.80;;;;;;;4.41;100.00;103185.09;4899235;29;20059;-80
2022/04/17 00:07:32;;;;;;;8.00;3.25;;;;;;;4.24;100.00;103163.03;4884643;29;20037;-80
2022/04/17 00:09:58;;;;;;;11.57;3.20;;;;;;;4.37;100.00;103178.22;4898319;29;20021;-80
2022/04/17 00:12:26;;;;;;;11.77;3.83;;;;;;;4.34;100.00;103173.09;4907331;29;20024;-80
2022/04/17 00:14:54;;;;;;;10.35;3.10;;;;;;;4.32;100.00;103172.34;4918333;29;20084;-80
2022/04/17 00:17:19;;;;;;;8.18;2.70;;;;;;;4.18;100.00;103147.44;4879786;29;20064;-80
2022/04/17 00:19:45;;;;;;;8.48;2.72;;;;;;;4.26;100.00;103170.06;4900669;29;20064;-80
2022/04/17 00:22:12;;;;;;;8.00;2.40;;;;;;;4.21;100.00;103157.91;4897313;29;20033;-80
2022/04/17 00:24:40;;;;;;;11.18;2.30;;;;;;;4.11;100.00;103132.81;4899578;29;20131;-80
2022/04/17 00:27:07;;;;;;;6.30;2.72;;;;;;;4.11;100.00;103138.16;4900245;29;20021;-80
2022/04/17 00:29:32;;;;;;;5.25;2.40;;;;;;;4.21;100.00;103149.06;4900010;29;20032;-80
2022/04/17 00:31:58;;;;;;;7.97;2.60;;;;;;;4.22;100.00;103156.94;4901409;29;20043;-80
2022/04/17 00:34:24;;;;;;;10.18;2.83;;;;;;;4.13;100.00;103138.88;4898972;29;20056;-80
2022/04/17 00:36:49;;;;;;;11.57;2.97;;;;;;;4.26;100.00;103146.09;4900133;29;20061;-80
2022/04/17 00:39:14;;;;;;;9.00;2.83;;;;;;;4.24;100.00;103146.22;4896982;29;20335;-80
2022/04/17 00:41:40;;;;;;;8.25;3.15;;;;;;;4.24;100.00;103147.06;4899504;29;20032;-79
2022/04/17 00:44:15;;;;;;;13.60;3.53;;;;;;;4.10;100.00;103124.91;4902307;29;20048;-80
2022/04/17 00:46:41;;;;;;;9.23;3.53;;;;;;;4.18;100.00;103131.47;4902224;29;20024;-80
2022/04/17 00:49:07;;;;;;;8.55;2.90;;;;;;;4.16;100.00;103130.69;4898934;29;20064;-80
2022/04/17 00:51:36;;;;;;;7.82;2.92;;;;;;;4.20;100.00;103139.34;4899688;29;20107;-80
2022/04/17 00:54:08;;;;;;;9.52;3.47;;;;;;;4.07;100.00;103117.13;4899278;29;20039;-80
2022/04/17 00:56:34;;;;;;;10.98;3.13;;;;;;;4.14;100.00;103135.28;4900818;29;20024;-80
2022/04/17 00:59:02;;;;;;;12.32;3.88;;;;;;;4.21;100.00;103136.59;4898781;29;20044;-80
2022/04/17 01:01:32;;;;;;;14.65;3.30;;;;;;;4.22;100.00;103142.78;4898413;29;20052;-80
2022/04/17 01:03:58;;;;;;;12.70;3.05;;;;;;;4.10;100.00;103124.91;4899390;29;20083;-80
2022/04/17 01:06:23;;;;;;;8.10;3.10;;;;;;;4.22;100.00;103143.63;4900598;29;20088;-80
2022/04/17 01:08:49;;;;;;;7.85;3.45;;;;;;;4.02;100.00;103120.09;4898995;29;20099;-80
2022/04/17 01:11:16;;;;;;;7.53;3.42;;;;;;;4.15;100.00;103147.66;4900673;29;20040;-80
2022/04/17 01:13:49;;;;;;;8.55;3.45;;;;;;;4.13;100.00;103141.56;4883308;29;20119;-80
2022/04/17 01:16:16;;;;;;;10.73;4.00;;;;;;;4.10;100.00;103139.09;4900272;29;20035;-80
2022/04/17 01:19:04;;;;;;;11.25;3.22;;;;;;;4.06;100.00;103137.59;4907383;29;20052;-80
2022/04/17 01:21:34;;;;;;;10.02;3.50;;;;;;;4.03;100.00;103137.78;4904336;29;20065;-80
2022/04/17 01:26:56;;;;;;;8.45;3.03;;;;;;;4.00;100.00;103114.00;4904205;29;20028;-80
2022/04/17 01:29:25;;;;;;;8.45;3.22;;;;;;;3.99;100.00;103112.28;4908792;29;20039;-80
2022/04/17 01:31:51;;;;;;;8.57;2.53;;;;;;;4.09;100.00;103118.72;4903007;29;20024;-80
2022/04/17 01:34:17;;;;;;;7.88;2.90;;;;;;;4.10;100.00;103124.91;4900617;29;20111;-80
2022/04/17 01:36:44;;;;;;;9.18;3.63;;;;;;;4.12;100.00;103123.88;4882602;29;20115;-80
2022/04/17 01:39:09;;;;;;;11.05;3.38;;;;;;;3.97;100.00;103106.19;4898440;29;20119;-80
2022/04/17 01:41:35;;;;;;;9.70;3.53;;;;;;;4.16;100.00;103125.38;4898490;29;20471;-80
2022/04/17 01:44:00;;;;;;;10.93;4.15;;;;;;;4.14;100.00;103124.63;4869500;29;20096;-80
2022/04/17 01:46:25;;;;;;;9.10;3.42;;;;;;;4.13;100.00;103127.38;4897924;29;20088;-80
2022/04/17 01:48:51;;;;;;;6.78;3.03;;;;;;;3.76;100.00;103066.69;4880503;29;20043;-80
2022/04/17 01:51:16;;;;;;;7.72;2.78;;;;;;;4.05;100.00;103114.56;4897663;29;20028;-80
2022/04/17 01:53:41;;;;;;;12.30;3.60;;;;;;;4.09;100.00;103124.06;4897489;29;20107;-80
2022/04/17 01:56:07;;;;;;;9.25;3.42;;;;;;;4.10;100.00;103127.56;4897499;29;20120;-79
2022/04/17 01:58:32;;;;;;;10.55;3.70;;;;;;;4.03;100.00;103120.94;4899045;29;20151;-80
2022/04/17 02:00:57;;;;;;;8.75;3.35;;;;;;;4.09;100.00;103129.41;4897275;29;20484;-80
2022/04/17 02:03:23;;;;;;;9.30;3.10;;;;;;;4.07;100.00;103131.28;4899083;29;20115;-80
2022/04/17 02:05:48;;;;;;;6.85;3.33;;;;;;;4.03;100.00;103121.78;4880137;29;20044;-80
2022/04/17 02:08:16;;;;;;;8.63;3.15;;;;;;;4.02;100.00;103124.56;4896739;29;20111;-79
2022/04/17 02:10:41;;;;;;;10.10;4.10;;;;;;;3.91;100.00;103107.47;4898419;29;20053;-80
2022/04/17 02:13:07;;;;;;;7.60;3.15;;;;;;;3.83;100.00;103088.44;4898410;29;20032;-81
2022/04/17 02:15:33;;;;;;;9.38;3.10;;;;;;;3.98;100.00;103108.78;4904103;29;20042;-80
2022/04/17 02:17:58;;;;;;;7.75;3.70;;;;;;;3.73;100.00;103069.56;4898546;29;20455;-79
2022/04/17 02:20:24;;;;;;;9.18;3.55;;;;;;;3.93;100.00;103099.38;4897761;29;20119;-79
2022/04/17 02:22:49;;;;;;;9.57;3.50;;;;;;;3.97;100.00;103108.88;4896998;29;20044;-81
2022/04/17 02:25:14;;;;;;;8.63;3.90;;;;;;;3.97;100.00;103109.75;4897711;29;20048;-80
2022/04/17 02:27:40;;;;;;;11.38;4.22;;;;;;;3.98;100.00;103118.59;4865251;29;20092;-80
2022/04/17 02:30:06;;;;;;;9.18;3.83;;;;;;;3.95;100.00;103106.31;4896349;29;20033;-80
2022/04/17 02:32:32;;;;;;;7.95;3.38;;;;;;;3.99;100.00;103113.16;4899218;29;20085;-80
2022/04/17 02:34:57;;;;;;;12.93;4.03;;;;;;;3.99;100.00;103106.97;4898830;29;20032;-81
2022/04/17 02:37:23;;;;;;;8.98;4.07;;;;;;;3.99;100.00;103104.31;4897978;29;20043;-80
2022/04/17 02:39:48;;;;;;;9.10;4.43;;;;;;;3.98;100.00;103107.94;4895221;29;20104;-80
2022/04/17 02:42:13;;;;;;;7.00;3.60;;;;;;;3.97;100.00;103111.53;4881877;29;20040;-80
2022/04/17 02:44:39;;;;;;;11.43;4.28;;;;;;;3.83;100.00;103088.44;4895296;29;20442;-80
2022/04/17 02:49:48;;;;;;;8.48;3.63;;;;;;;3.84;100.00;103076.00;4897894;29;20562;-80
2022/04/17 02:52:14;;;;;;;8.50;3.75;;;;;;;3.50;100.00;103025.75;4896346;29;20116;-80
2022/04/17 02:54:39;;;;;;;10.73;3.88;;;;;;;3.94;100.00;103101.06;4896937;29;20398;-80
2022/04/17 02:57:05;;;;;;;11.20;4.30;;;;;;;3.88;100.00;103094.34;4896305;29;20037;-81
2022/04/17 02:59:31;;;;;;;12.60;4.43;;;;;;;3.90;100.00;103116.41;4908003;29;20055;-79
2022/04/17 03:07:24;;;;;;;7.68;3.50;;;;;;;3.70;100.00;103100.84;4901029;29;20055;-80
2022/04/17 03:09:50;;;;;;;10.07;3.90;;;;;;;3.87;100.00;103127.25;4901254;29;20451;-80
2022/04/17 03:12:15;;;;;;;12.52;3.63;;;;;;;3.78;100.00;103105.69;4907248;29;20047;-80
2022/04/17 03:14:40;;;;;;;8.73;3.80;;;;;;;3.73;100.00;103108.63;4906308;29;20040;-80
2022/04/17 03:17:06;;;;;;;8.02;3.55;;;;;;;3.47;100.00;103081.00;4901715;29;20037;-80
2022/04/17 03:19:33;;;;;;;10.73;4.35;;;;;;;3.43;100.00;103074.16;4901248;29;20044;-80
2022/04/17 03:21:58;;;;;;;9.88;4.07;;;;;;;3.52;100.00;103090.41;4899486;29;20032;-80
2022/04/17 03:24:24;;;;;;;9.15;4.40;;;;;;;3.53;100.00;103080.63;4900366;29;20120;-80
2022/04/17 03:26:49;;;;;;;10.95;4.97;;;;;;;3.57;100.00;103083.94;4899840;29;20149;-80
2022/04/17 03:29:14;;;;;;;11.43;5.55;;;;;;;3.62;100.00;103092.50;4900349;29;20036;-80
2022/04/17 03:31:39;;;;;;;10.80;4.95;;;;;;;3.64;100.00;103087.91;4898970;29;20033;-80
2022/04/17 03:34:08;;;;;;;13.70;5.30;;;;;;;3.67;100.00;103088.56;4900608;29;20056;-80
2022/04/17 03:36:35;;;;;;;11.88;5.75;;;;;;;3.59;100.00;103077.56;4884409;29;20112;-79
2022/04/17 03:39:00;;;;;;;12.30;6.78;;;;;;;3.27;100.00;103016.59;4898796;29;20459;-80
2022/04/17 03:41:26;;;;;;;12.35;7.20;;;;;;;3.69;100.00;103085.84;4900895;29;20036;-79
2022/04/17 03:43:51;;;;;;;14.70;8.05;;;;;;;3.66;100.00;103081.56;4883267;29;20076;-80
2022/04/17 03:46:16;;;;;;;15.57;8.52;;;;;;;3.72;100.00;103099.81;4900275;29;20036;-80
2022/04/17 03:48:42;;;;;;;17.08;8.85;;;;;;;3.72;100.00;103097.13;4899817;29;20029;-81
2022/04/17 03:51:07;;;;;;;17.45;9.45;;;;;;;3.66;100.00;103089.53;4904070;29;20040;-80
2022/04/17 03:53:32;;;;;;;21.98;10.07;;;;;;;3.72;100.00;103099.81;4902713;29;20033;-80
2022/04/17 03:55:58;;;;;;;15.25;9.60;;;;;;;3.68;100.00;103100.09;4900408;29;20029;-80
2022/04/17 03:58:23;;;;;;;18.67;9.75;;;;;;;3.66;100.00;103113.50;4898808;29;20628;-80
2022/04/17 04:00:48;;;;;;;20.02;10.25;;;;;;;3.51;100.00;103082.53;4883414;29;20456;-80
2022/04/17 04:03:14;;;;;;;20.63;10.38;;;;;;;3.62;100.00;103090.69;4897193;29;20099;-80
2022/04/17 04:05:39;;;;;;;20.55;10.15;;;;;;;3.59;100.00;103082.91;4897613;29;20068;-80
2022/04/17 04:08:04;;;;;;;16.83;9.35;;;;;;;3.54;100.00;103092.97;4898384;29;20123;-80
2022/04/17 04:10:30;;;;;;;16.42;10.48;;;;;;;3.50;100.00;103092.31;4897323;29;20033;-80
2022/04/17 04:12:56;;;;;;;19.80;10.82;;;;;;;3.48;100.00;103083.59;4897671;29;20056;-80
2022/04/17 04:15:21;;;;;;;21.38;11.73;;;;;;;3.64;100.00;103083.47;4899871;29;20047;-80
2022/04/17 04:17:47;;;;;;;20.92;11.50;;;;;;;3.64;100.00;103077.28;4898304;29;20032;-80
2022/04/17 04:20:12;;;;;;;21.65;12.32;;;;;;;3.62;100.00;103077.38;4899508;29;20099;-80
2022/04/17 04:22:38;;;;;;;22.88;12.88;;;;;;;3.67;100.00;103072.59;4898295;29;20035;-80
2022/04/17 04:25:03;;;;;;;21.25;11.90;;;;;;;3.78;100.00;103079.91;4898960;29;20040;-80
2022/04/17 04:30:13;;;;;;;21.92;12.85;;;;;;;4.21;100.00;103083.28;4904520;29;20050;-80
2022/04/17 04:32:38;;;;;;;23.98;13.70;;;;;;;4.39;100.00;103038.56;4900054;29;20037;-80
2022/04/17 04:35:05;;;;;;;22.30;12.93;;;;;;;4.66;100.00;103035.81;4898287;29;20065;-80
2022/04/17 04:37:31;;;;;;;26.25;13.63;;;;;;;5.63;100.00;103061.88;4898475;29;20084;-81
2022/04/17 04:39:57;;;;;;;24.88;13.15;;;;;;;6.54;100.00;103060.50;4897772;29;20067;-80
2022/04/17 04:42:22;;;;;;;21.88;13.18;;;;;;;7.07;100.00;103056.34;4883726;29;20039;-81
2022/04/17 04:46:06;;;;;;;20.88;12.15;;;;;;;7.35;100.00;103018.47;4904608;29;20079;-80
2022/04/17 04:47:34;;;;;;;22.35;11.82;;;;;;;8.10;100.00;103066.78;4903762;29;20118;-81
2022/04/17 04:49:59;;;;;;;18.10;11.13;;;;;;;8.50;100.00;103063.47;4882647;29;20033;-80
2022/04/17 04:52:25;;;;;;;19.02;10.32;;;;;;;8.78;100.00;103059.28;4883399;29;20084;-80
2022/04/17 04:54:50;;;;;;;16.00;9.98;;;;;;;9.23;100.00;103058.94;4898693;29;20037;-80
2022/04/17 04:57:15;;;;;;;21.08;10.70;;;;;;;9.40;100.00;103061.00;4898879;29;20095;-80
2022/04/17 04:59:41;;;;;;;15.95;9.38;;;;;;;9.71;100.00;103052.88;4881778;29;20387;-80
2022/04/17 05:02:06;;;;;;;12.85;8.55;;;;;;;10.06;100.00;103051.50;4897804;29;20370;-80
2022/04/17 05:04:33;;;;;;;14.98;8.05;;;;;;;10.16;100.00;103051.50;4896154;29;20072;-80
2022/04/17 05:06:58;;;;;;;12.55;7.40;;;;;;;10.47;100.00;103054.94;4899659;29;20042;-80
2022/04/17 05:09:24;;;;;;;10.13;6.65;;;;;;;10.72;100.00;103056.16;4898773;29;20028;-80
2022/04/17 05:11:49;;;;;;;12.27;6.60;;;;;;;10.95;100.00;103048.59;4900822;29;20064;-80
2022/04/17 05:14:16;;;;;;;11.35;6.30;;;;;;;11.20;100.00;103053.34;4917636;29;20032;-80
2022/04/17 05:16:42;;;;;;;8.73;5.45;;;;;;;11.36;100.00;103047.31;4913620;29;20033;-80
2022/04/17 05:19:20;;;;;;;10.93;5.32;;;;;;;11.72;100.00;103053.63;4903220;29;20467;-80
2022/04/17 05:21:51;;;;;;;10.75;5.38;;;;;;;11.61;100.00;103058.38;4902555;29;20029;-79
2022/04/17 05:24:17;;;;;;;8.05;5.28;;;;;;;11.55;100.00;103054.44;4899154;29;20069;-80
2022/04/17 05:26:43;;;;;;;10.05;5.30;;;;;;;11.93;100.00;103056.06;4897545;29;20037;-80
2022/04/17 05:29:09;;;;;;;8.45;5.07;;;;;;;11.49;100.00;103055.06;4881922;29;20123;-80
2022/04/17 05:31:34;;;;;;;8.13;5.40;;;;;;;10.00;100.00;103036.81;4896345;29;20119;-80
2022/04/17 05:34:00;;;;;;;8.80;5.45;;;;;;;9.06;100.00;103049.69;4897085;29;20359;-80
2022/04/17 05:36:25;;;;;;;11.18;5.00;;;;;;;8.64;100.00;103052.44;4895049;29;20467;-80
2022/04/17 05:38:53;;;;;;;10.75;5.03;;;;;;;8.38;100.00;103051.13;4899315;29;20367;-80
2022/04/17 05:41:29;;;;;;;7.85;4.93;;;;;;;8.16;100.00;103047.50;4897500;29;20033;-80
2022/04/17 05:43:57;;;;;;;9.63;4.60;;;;;;;8.13;100.00;103052.28;4895656;29;20028;-81
2022/04/17 05:46:24;;;;;;;6.57;4.32;;;;;;;7.96;100.00;103029.56;4901309;29;20029;-80
2022/04/17 05:48:49;;;;;;;6.13;3.95;;;;;;;7.88;100.00;103027.53;4897255;29;20502;-80
2022/04/17 05:51:15;;;;;;;7.63;3.70;;;;;;;7.98;100.00;103039.19;4900022;29;20047;-81
2022/04/17 05:53:40;;;;;;;6.35;3.33;;;;;;;8.21;100.00;103060.53;4903990;29;20056;-80
2022/04/17 05:56:05;;;;;;;5.28;2.95;;;;;;;8.20;100.00;103053.47;4896571;29;20032;-80
2022/04/17 05:58:31;;;;;;;7.05;3.08;;;;;;;8.24;100.00;103053.09;4898605;29;20550;-80
2022/04/17 06:00:56;;;;;;;7.10;3.10;;;;;;;8.41;100.00;103061.56;4902211;29;20088;-80
2022/04/17 06:03:22;;;;;;;5.38;2.67;;;;;;;8.39;100.00;103048.28;4880533;29;20052;-80
2022/04/17 06:05:48;;;;;;;4.97;2.67;;;;;;;8.45;100.00;103041.56;4879689;29;20481;-81
2022/04/17 06:08:13;;;;;;;6.32;2.42;;;;;;;8.53;100.00;103060.53;4881806;29;20037;-80
2022/04/17 06:10:39;;;;;;;4.22;2.45;;;;;;;8.61;100.00;103055.38;4883190;29;20135;-79
2022/04/17 06:13:04;;;;;;;3.65;2.35;;;;;;;8.67;100.00;103059.34;4894700;29;20056;-79
2022/04/17 06:15:30;;;;;;;3.72;2.30;;;;;;;8.64;100.00;103047.06;4899901;29;20029;-81
2022/04/17 06:17:55;;;;;;;4.60;1.90;;;;;;;8.83;100.00;103053.50;4907719;29;20032;-82
2022/04/17 06:20:20;;;;;;;4.80;2.30;;;;;;;8.88;100.00;103044.09;4909339;29;20028;-80
2022/04/17 06:22:46;;;;;;;4.28;2.38;;;;;;;8.98;100.00;103054.03;4893851;29;20037;-80
2022/04/17 06:25:14;;;;;;;5.60;2.13;;;;;;;9.07;100.00;103051.41;4898249;29;20072;-81
2022/04/17 06:27:45;;;;;;;3.13;1.92;;;;;;;9.09;100.00;103046.72;4899924;29;20116;-81
2022/04/17 06:30:18;;;;;;;4.28;2.22;;;;;;;9.12;100.00;103051.00;4901127;29;20043;-79
2022/04/17 06:32:45;;;;;;;3.70;2.67;;;;;;;9.21;100.00;103049.34;4901932;29;20020;-79
2022/04/17 06:35:12;;;;;;;4.82;2.20;;;;;;;9.21;100.00;103028.69;4909104;29;20036;-80
2022/04/17 06:37:54;;;;;;;5.45;2.35;;;;;;;9.28;100.00;103048.66;4900900;29;20036;-80
2022/04/17 06:40:25;;;;;;;4.15;2.28;;;;;;;8.94;100.00;102989.03;4890966;29;20068;-82
2022/04/17 06:42:52;;;;;;;3.92;2.03;;;;;;;9.36;100.00;103047.97;4917776;29;20068;-80
2022/04/17 06:45:18;;;;;;;5.22;2.13;;;;;;;9.36;100.00;103047.97;4896861;29;20107;-80
2022/04/17 06:47:44;;;;;;;5.35;1.50;;;;;;;9.19;100.00;103041.41;4901836;29;20507;-81
2022/04/17 06:50:10;;;;;;;2.95;1.80;;;;;;;9.21;100.00;103041.28;4897681;29;20049;-81
2022/04/17 06:52:36;;;;;;;3.00;1.60;;;;;;;9.31;100.00;103039.47;4882616;29;20036;-80
2022/04/17 06:55:02;;;;;;;3.17;1.40;;;;;;;9.48;100.00;103035.28;4900853;29;20044;-81
2022/04/17 06:57:32;;;;;;;3.10;1.60;;;;;;;9.48;100.00;103041.50;4907864;29;20032;-83
2022/04/17 07:00:03;;;;;;;3.72;1.45;;;;;;;9.50;100.00;103038.66;4912987;29;20066;-79
2022/04/17 07:02:28;;;;;;;3.33;1.58;;;;;;;9.39;100.00;103026.19;4900947;29;20044;-79
2022/04/17 07:04:53;;;;;;;3.67;1.70;;;;;;;9.47;100.00;103045.19;4901162;29;20052;-80
2022/04/17 07:07:18;;;;;;;3.30;2.00;;;;;;;9.45;100.00;103043.63;4901269;29;20475;-78
2022/04/17 07:09:44;;;;;;;3.50;1.70;;;;;;;9.58;100.00;103036.16;4900290;29;20067;-78
2022/04/17 07:12:09;;;;;;;3.40;1.88;;;;;;;9.68;100.00;103046.94;4898316;29;20032;-78
2022/04/17 07:14:34;;;;;;;3.72;1.77;;;;;;;9.63;100.00;103042.84;4899238;29;20119;-79
2022/04/17 07:17:00;;;;;;;5.07;2.10;;;;;;;9.63;100.00;103045.53;4898847;29;20036;-79
2022/04/17 07:19:25;;;;;;;4.78;2.08;;;;;;;9.57;100.00;103038.00;4902043;29;20041;-79
2022/04/17 07:21:51;;;;;;;3.50;1.90;;;;;;;9.22;100.00;102990.09;4885139;29;20029;-81
2022/04/17 07:24:16;;;;;;;5.68;2.40;;;;;;;9.42;100.00;103042.06;4885869;29;20040;-79
2022/04/17 07:26:43;;;;;;;4.55;2.25;;;;;;;9.25;98.48;103035.50;4899631;29;20047;-80
2022/04/17 07:29:08;;;;;;;4.00;2.08;;;;;;;9.30;98.82;103049.34;4902161;29;20033;-78
2022/04/17 07:31:34;;;;;;;5.68;2.83;;;;;;;9.30;97.45;103048.50;4900423;29;20392;-79
2022/04/17 07:33:59;;;;;;;6.22;2.70;;;;;;;9.26;97.21;103045.25;4915024;29;20040;-83
2022/04/17 07:36:24;;;;;;;6.18;2.65;;;;;;;9.45;97.36;103049.00;4923652;29;20028;-81
2022/04/17 07:41:43;;;;;;;4.47;2.65;;;;;;;9.39;97.94;103053.91;6034612;23;20104;-82
2022/04/17 07:44:11;;;;;;;5.13;2.70;;;;;;;8.08;96.69;102830.13;4884337;29;20084;-85
2022/04/17 07:46:38;;;;;;;4.90;2.83;;;;;;;8.51;96.58;102906.00;4886379;29;20041;-84
2022/04/17 07:49:04;;;;;;;5.03;2.70;;;;;;;8.08;94.85;102808.66;4894493;29;20033;-80
2022/04/17 07:54:04;;;;;;;8.50;3.67;;;;;;;8.49;93.60;102875.78;4931755;23;20102;-80
2022/04/17 07:56:30;;;;;;;6.30;3.00;;;;;;;9.61;94.97;103046.63;4920440;29;20394;-79
2022/04/17 07:58:55;;;;;;;5.00;2.90;;;;;;;9.66;95.80;103047.06;4904184;29;20047;-81
2022/04/17 08:01:21;;;;;;;5.22;3.20;;;;;;;9.69;93.34;103046.78;4897289;29;20091;-79
2022/04/17 08:03:47;;;;;;;7.13;3.95;;;;;;;9.67;94.00;103037.16;4898512;29;20358;-81
2022/04/17 08:06:15;;;;;;;5.72;3.28;;;;;;;9.62;93.69;103037.59;4905968;29;20020;-80
2022/04/17 08:08:42;;;;;;;4.90;3.13;;;;;;;9.52;93.60;103037.56;4905757;29;20051;-79
2022/04/17 08:11:09;;;;;;;7.22;3.97;;;;;;;9.55;93.57;103045.34;4899146;29;20419;-80
2022/04/17 08:13:35;;;;;;;8.18;3.58;;;;;;;9.62;92.26;103048.34;4903498;29;20032;-81
2022/04/17 08:16:04;;;;;;;7.15;3.80;;;;;;;9.63;93.03;103050.03;4900506;29;20052;-80
2022/04/17 08:18:36;;;;;;;8.52;4.20;;;;;;;9.43;94.56;103049.13;4899435;29;20028;-79
2022/04/17 08:21:04;;;;;;;6.93;3.95;;;;;;;9.21;94.48;103044.81;4899197;29;20522;-80
2022/04/17 08:23:30;;;;;;;9.95;4.20;;;;;;;9.02;94.94;103036.66;4898125;29;20040;-80
2022/04/17 08:25:55;;;;;;;6.72;3.60;;;;;;;9.05;96.68;103039.94;4900072;29;20056;-79
2022/04/17 08:28:21;;;;;;;5.93;3.42;;;;;;;9.04;96.60;103057.03;4900975;29;20029;-81
2022/04/17 08:30:46;;;;;;;8.25;4.32;;;;;;;9.06;95.10;103049.69;4901940;29;20024;-82
2022/04/17 08:33:11;;;;;;;7.22;3.70;;;;;;;9.13;96.29;103060.75;4901007;29;20063;-79
2022/04/17 08:35:37;;;;;;;7.53;3.92;;;;;;;9.29;93.40;103058.41;4899314;29;20025;-79
2022/04/17 08:38:03;;;;;;;8.60;4.18;;;;;;;9.24;92.77;103039.16;4896655;29;20460;-81
2022/04/17 08:40:30;;;;;;;6.57;3.72;;;;;;;9.12;93.77;103048.31;4903753;29;20037;-83
2022/04/17 08:42:59;;;;;;;6.97;3.55;;;;;;;9.26;96.14;103055.13;4915964;29;20033;-83
2022/04/17 08:45:25;;;;;;;6.05;3.10;;;;;;;9.15;94.58;103054.25;4907022;29;20036;-81
2022/04/17 08:47:51;;;;;;;6.53;3.10;;;;;;;9.15;92.09;103056.94;4901181;29;20097;-80
2022/04/17 08:50:19;;;;;;;5.30;3.10;;;;;;;9.11;90.89;103027.81;4910772;29;20041;-79
2022/04/17 08:52:47;;;;;;;5.60;2.90;;;;;;;9.34;92.26;103049.97;4915732;29;20056;-82
2022/04/17 08:55:14;;;;;;;9.45;3.55;;;;;;;9.26;91.84;103042.56;4920188;29;20092;-82
2022/04/17 08:57:39;;;;;;;7.30;3.53;;;;;;;9.32;91.45;103039.34;4910587;29;20395;-81
2022/04/17 09:00:08;;;;;;;6.43;3.65;;;;;;;9.33;92.05;103042.88;4909742;29;20056;-82
2022/04/17 09:02:37;;;;;;;6.57;3.35;;;;;;;9.29;92.09;103036.06;4906585;29;20029;-82
2022/04/17 09:05:09;;;;;;;6.65;3.25;;;;;;;9.21;92.61;103033.22;4904680;29;20037;-82
2022/04/17 09:07:39;;;;;;;4.95;3.10;;;;;;;9.27;94.83;103041.59;4906257;29;20052;-81
2022/04/17 09:10:05;;;;;;;5.97;3.10;;;;;;;8.98;94.34;102998.50;4907560;29;20067;-81
2022/04/17 09:12:30;;;;;;;6.63;3.10;;;;;;;9.03;98.60;103027.63;4914255;29;20082;-82
2022/04/17 09:14:57;;;;;;;4.95;3.05;;;;;;;9.04;96.65;103034.69;4899543;29;20108;-82
2022/04/17 09:17:32;;;;;;;5.10;2.83;;;;;;;8.91;95.53;103008.91;4899766;29;20028;-82
2022/04/17 09:19:57;;;;;;;;;;;;;;;9.03;97.30;103016.88;4908972;29;20088;-83
2022/04/17 09:22:22;;;;;;;5.57;3.08;;;;;;;9.06;96.60;103027.34;4908725;29;19931;-82
2022/04/17 09:24:48;;;;;;;5.68;3.20;;;;;;;9.10;92.43;103026.94;4907173;29;20105;-82
2022/04/17 09:27:13;;;;;;;4.93;3.30;;;;;;;9.14;95.29;103022.16;4905989;29;20356;-82
2022/04/17 09:29:40;;;;;;;6.47;3.30;;;;;;;9.20;95.27;103042.25;4957720;23;20354;-83
2022/04/17 09:32:05;;;;;;;5.57;3.53;;;;;;;9.15;91.11;103019.34;4888774;29;20033;-81
2022/04/17 09:34:52;;;;;;;6.90;3.38;;;;;;;9.11;91.72;103014.38;4881030;29;20092;-81
2022/04/17 09:37:22;;;;;;;7.50;3.72;;;;;;;8.87;93.69;102958.28;4881293;29;20069;-81
2022/04/17 09:39:49;;;;;;;5.65;3.30;;;;;;;8.80;95.29;102957.13;4881001;29;20111;-81
2022/04/17 09:42:25;;;;;;;6.00;3.55;;;;;;;9.17;95.44;103017.38;4880652;29;20469;-81
2022/04/17 09:44:54;;;;;;;7.22;3.75;;;;;;;9.16;90.12;103018.34;4882696;29;20100;-83
2022/04/17 09:47:25;;;;;;;8.73;4.30;;;;;;;9.22;89.76;103014.28;4892514;29;20045;-83
2022/04/17 09:50:00;;;;;;;6.85;3.70;;;;;;;9.32;91.90;103014.31;4887921;29;20047;-82
2022/04/17 09:52:45;;;;;;;7.00;3.28;;;;;;;9.37;89.77;103012.91;4889701;29;20085;-83
2022/04/17 09:55:11;;;;;;;6.18;3.63;;;;;;;9.31;91.70;102994.66;4907254;29;20429;-82
2022/04/17 09:57:43;;;;;;;6.10;3.60;;;;;;;9.43;91.06;103007.97;4907981;29;20028;-82
2022/04/17 10:00:09;;;;;;;6.55;3.45;;;;;;;9.41;91.47;103003.59;4893647;29;20052;-81
2022/04/17 10:02:38;;;;;;;5.90;3.42;;;;;;;9.35;91.60;103001.44;4888723;29;20056;-82
2022/04/17 10:05:06;;;;;;;5.63;3.20;;;;;;;9.27;93.08;102984.28;4889663;29;20112;-82
2022/04/17 10:07:32;;;;;;;7.18;3.42;;;;;;;9.37;91.57;102986.03;4888397;29;20029;-81
2022/04/17 10:09:57;;;;;;;6.70;3.22;;;;;;;9.39;88.31;102989.44;4890424;29;20048;-82
2022/04/17 10:12:25;;;;;;;5.80;3.30;;;;;;;9.51;88.92;102994.72;4888971;29;20029;-82
2022/04/17 10:14:52;;;;;;;6.13;3.50;;;;;;;9.50;87.60;102987.59;4889005;29;20040;-81
2022/04/17 10:17:20;;;;;;;6.07;2.97;;;;;;;9.50;83.95;102985.75;4887959;29;20104;-82
2022/04/17 10:19:47;;;;;;;5.88;3.20;;;;;;;9.49;82.15;102976.00;4887298;29;20033;-82
2022/04/17 10:22:18;;;;;;;7.25;3.53;;;;;;;9.56;80.91;102981.69;4888165;29;20036;-81
2022/04/17 10:24:53;;;;;;;6.45;3.35;;;;;;;9.53;80.71;102973.91;4898004;29;20029;-82
2022/04/17 10:27:30;;;;;;;8.85;3.20;;;;;;;9.58;81.28;102972.50;4908780;29;20039;-82
2022/04/17 10:30:07;;;;;;;6.70;3.10;;;;;;;9.69;79.79;102968.81;4894048;29;20057;-81
2022/04/17 10:32:32;;;;;;;6.40;3.00;;;;;;;9.72;80.62;102967.69;4885944;29;20076;-81
2022/04/17 10:35:13;;;;;;;6.93;2.90;;;;;;;9.69;80.73;102946.47;4881149;29;20021;-81
2022/04/17 10:38:23;;;;;;;5.07;2.92;;;;;;;9.69;78.65;102963.44;4887212;29;20029;-81
2022/04/17 10:41:07;;;;;;;5.25;3.22;;;;;;;9.68;78.28;102956.38;4880521;29;20451;-78
2022/04/17 10:43:56;;;;;;;5.38;3.15;;;;;;;9.49;78.49;102907.97;4875913;29;20376;-79
2022/04/17 10:46:23;;;;;;;5.95;2.83;;;;;;;9.75;77.54;102948.59;4876624;29;20063;-81
2022/04/17 10:49:00;;;;;;;5.60;3.13;;;;;;;9.76;76.77;102948.44;4880217;29;20028;-82
2022/04/17 10:51:30;;;;;;;4.32;2.97;;;;;;;9.79;64.12;102942.78;4883294;29;20036;-82
2022/04/17 10:54:06;;;;;;;6.13;3.30;;;;;;;9.83;62.56;102944.22;4879974;29;20029;-79
2022/04/17 10:56:39;;;;;;;6.43;3.20;;;;;;;9.90;64.67;102944.50;4879663;29;20104;-79
2022/04/17 10:59:16;;;;;;;5.57;3.30;;;;;;;9.81;63.55;102932.75;4879601;29;20140;-79
2022/04/17 11:01:43;;;;;;;5.45;2.88;;;;;;;9.85;63.07;102938.69;4878204;29;20084;-80
2022/04/17 11:04:17;;;;;;;4.38;2.80;;;;;;;9.94;61.62;102939.69;4879442;29;20064;-80
2022/04/17 11:06:43;;;;;;;5.82;3.05;;;;;;;9.89;61.84;102938.25;4876812;29;20097;-81
2022/04/17 11:09:09;;;;;;;5.28;3.03;;;;;;;9.91;63.57;102932.75;4883349;29;20041;-81
2022/04/17 11:11:45;;;;;;;6.85;2.92;;;;;;;9.80;63.73;102928.38;4879791;29;20055;-82
2022/04/17 11:14:18;;;;;;;7.60;3.50;;;;;;;9.69;63.30;102924.97;4892767;29;20025;-83
2022/04/17 11:16:51;;;;;;;7.60;3.28;;;;;;;9.76;64.28;102926.09;4893077;29;20022;-82
2022/04/17 11:52:17;;;;;;;6.43;3.70;;;;;;;9.27;64.56;102825.81;5854831;23;20023;-80
2022/04/17 11:54:45;;;;;;;6.75;3.47;;;;;;;9.84;65.68;102916.34;4899366;29;20041;-81
2022/04/17 11:57:11;;;;;;;9.02;3.53;;;;;;;9.08;64.66;102772.94;4897053;29;20056;-82
2022/04/17 11:59:54;;;;;;;7.53;3.67;;;;;;;8.50;64.33;102674.41;4898751;29;20379;-81
2022/04/17 12:02:21;;;;;;;6.90;4.22;;;;;;;8.32;63.74;102659.97;4919209;29;20068;-81
2022/04/17 12:04:50;;;;;;;7.57;4.00;;;;;;;8.79;63.20;102744.22;4920286;29;20032;-81
2022/04/17 12:07:27;;;;;;;6.47;3.63;;;;;;;9.54;64.44;102843.94;4916256;29;20032;-83
2022/04/17 12:10:14;;;;;;;6.97;4.28;;;;;;;9.62;64.21;102876.31;4921317;29;20016;-84
2022/04/17 12:12:42;;;;;;;6.50;4.32;;;;;;;8.70;63.25;102728.97;4892845;29;20033;-84
2022/04/17 12:15:14;;;;;;;8.82;4.43;;;;;;;9.17;64.49;102807.88;4915239;29;20105;-83
2022/04/17 12:17:42;;;;;;;10.30;4.90;;;;;;;8.97;64.62;102762.31;4922945;29;20028;-84